sensor_id;sensor_type;location;lat;lon;timestamp;P1;durP1;ratioP1;P2;durP2;ratioP2
5630;SDS011;2837;50.990;7.124;2022-09-09T05:01:38;148.27;;;7.87;;
5630;SDS011;2837;50.990;7.124;2022-09-09T05:04:03;149.17;;;8.10;;
5630;SDS011;2837;50.990;7.124;2022-09-09T05:06:29;149.70;;;9.30;;
5630;SDS011;2837;50.990;7.124;2022-09-09T05:08:56;150.23;;;9.30;;
5630;SDS011;2837;50.990;7.124;2022-09-09T05:11:23;148.87;;;8.13;;
5630;SDS011;2837;50.990;7.124;2022-09-09T05:13:52;148.50;;;8.83;;
5630;SDS011;2837;50.990;7.124;2022-09-09T05:16:19;148.37;;;8.80;;
5630;SDS011;2837;50.990;7.124;2022-09-09T05:18:45;148.17;;;8.47;;
5630;SDS011;2837;50.990;7.124;2022-09-09T05:21:12;149.10;;;8.90;;
5630;SDS011;2837;50.990;7.124;2022-09-09T05:23:39;151.83;;;9.03;;
5630;SDS011;2837;50.990;7.124;2022-09-09T05:26:05;150.07;;;8.70;;
5630;SDS011;2837;50.990;7.124;2022-09-09T05:28:33;156.07;;;9.10;;
5630;SDS011;2837;50.990;7.124;2022-09-09T05:31:04;149.03;;;8.70;;
5630;SDS011;2837;50.990;7.124;2022-09-09T05:33:33;149.40;;;8.87;;
5630;SDS011;2837;50.990;7.124;2022-09-09T05:36:01;148.87;;;8.30;;
5630;SDS011;2837;50.990;7.124;2022-09-09T05:38:28;150.00;;;9.27;;
5630;SDS011;2837;50.990;7.124;2022-09-09T05:40:54;154.67;;;9.30;;
5630;SDS011;2837;50.990;7.124;2022-09-09T05:43:23;150.13;;;8.33;;
5630;SDS011;2837;50.990;7.124;2022-09-09T05:46:00;149.57;;;8.60;;
5630;SDS011;2837;50.990;7.124;2022-09-09T05:48:37;151.10;;;8.87;;
5630;SDS011;2837;50.990;7.124;2022-09-09T05:51:04;148.50;;;8.07;;
5630;SDS011;2837;50.990;7.124;2022-09-09T05:53:32;151.30;;;8.90;;
5630;SDS011;2837;50.990;7.124;2022-09-09T05:55:59;150.00;;;8.37;;
5630;SDS011;2837;50.990;7.124;2022-09-09T05:58:28;151.17;;;8.67;;
5630;SDS011;2837;50.990;7.124;2022-09-09T06:01:11;148.90;;;8.47;;
5630;SDS011;2837;50.990;7.124;2022-09-09T06:03:39;150.73;;;8.40;;
5630;SDS011;2837;50.990;7.124;2022-09-09T06:06:07;149.70;;;8.93;;
5630;SDS011;2837;50.990;7.124;2022-09-09T06:08:35;154.17;;;8.83;;
5630;SDS011;2837;50.990;7.124;2022-09-09T06:11:03;149.40;;;8.37;;
5630;SDS011;2837;50.990;7.124;2022-09-09T06:13:30;148.90;;;7.83;;
5630;SDS011;2837;50.990;7.124;2022-09-09T06:15:56;149.03;;;8.43;;
5630;SDS011;2837;50.990;7.124;2022-09-09T06:18:23;152.30;;;9.40;;
5630;SDS011;2837;50.990;7.124;2022-09-09T06:23:21;148.97;;;8.37;;
5630;SDS011;2837;50.990;7.124;2022-09-09T06:25:46;149.37;;;8.70;;
5630;SDS011;2837;50.990;7.124;2022-09-09T06:28:12;148.97;;;9.67;;
5630;SDS011;2837;50.990;7.124;2022-09-09T06:30:38;150.07;;;8.87;;
5630;SDS011;2837;50.990;7.124;2022-09-09T06:33:04;149.20;;;9.30;;
5630;SDS011;2837;50.990;7.124;2022-09-09T06:35:30;152.87;;;9.20;;
5630;SDS011;2837;50.990;7.124;2022-09-09T06:37:56;151.17;;;9.10;;
5630;SDS011;2837;50.990;7.124;2022-09-09T06:40:23;148.17;;;7.83;;
5630;SDS011;2837;50.990;7.124;2022-09-09T06:42:49;149.37;;;8.60;;
5630;SDS011;2837;50.990;7.124;2022-09-09T06:45:16;148.70;;;8.17;;
5630;SDS011;2837;50.990;7.124;2022-09-09T06:47:42;151.20;;;8.90;;
5630;SDS011;2837;50.990;7.124;2022-09-09T06:50:08;149.87;;;8.50;;
5630;SDS011;2837;50.990;7.124;2022-09-09T06:52:35;150.63;;;8.83;;
5630;SDS011;2837;50.990;7.124;2022-09-09T06:55:00;149.77;;;8.80;;
5630;SDS011;2837;50.990;7.124;2022-09-09T06:57:27;148.97;;;8.17;;
5630;SDS011;2837;50.990;7.124;2022-09-09T06:59:53;149.50;;;8.40;;
5630;SDS011;2837;50.990;7.124;2022-09-09T07:02:18;151.50;;;9.03;;
5630;SDS011;2837;50.990;7.124;2022-09-09T07:04:44;153.10;;;8.80;;
5630;SDS011;2837;50.990;7.124;2022-09-09T07:07:10;150.90;;;8.33;;
5630;SDS011;2837;50.990;7.124;2022-09-09T07:09:38;149.17;;;7.73;;
5630;SDS011;2837;50.990;7.124;2022-09-09T07:12:04;150.17;;;8.43;;
5630;SDS011;2837;50.990;7.124;2022-09-09T07:14:31;150.20;;;8.13;;
5630;SDS011;2837;50.990;7.124;2022-09-09T07:16:57;149.67;;;9.27;;
5630;SDS011;2837;50.990;7.124;2022-09-09T07:19:23;150.37;;;9.17;;
5630;SDS011;2837;50.990;7.124;2022-09-09T07:21:48;148.93;;;8.70;;
5630;SDS011;2837;50.990;7.124;2022-09-09T07:24:15;148.50;;;8.37;;
5630;SDS011;2837;50.990;7.124;2022-09-09T07:26:40;150.97;;;9.87;;
5630;SDS011;2837;50.990;7.124;2022-09-09T07:29:06;150.40;;;8.17;;
5630;SDS011;2837;50.990;7.124;2022-09-09T07:31:34;149.20;;;9.00;;
5630;SDS011;2837;50.990;7.124;2022-09-09T07:34:02;149.83;;;9.13;;
5630;SDS011;2837;50.990;7.124;2022-09-09T07:36:29;149.83;;;8.73;;
5630;SDS011;2837;50.990;7.124;2022-09-09T07:39:04;150.37;;;9.97;;
5630;SDS011;2837;50.990;7.124;2022-09-09T07:41:35;149.77;;;8.83;;
5630;SDS011;2837;50.990;7.124;2022-09-09T07:44:10;151.00;;;10.30;;
5630;SDS011;2837;50.990;7.124;2022-09-09T07:46:41;149.97;;;8.40;;
5630;SDS011;2837;50.990;7.124;2022-09-09T07:49:08;149.70;;;9.07;;
5630;SDS011;2837;50.990;7.124;2022-09-09T07:51:35;149.73;;;9.07;;
5630;SDS011;2837;50.990;7.124;2022-09-09T07:54:04;149.70;;;9.67;;
5630;SDS011;2837;50.990;7.124;2022-09-09T07:56:31;147.60;;;8.70;;
5630;SDS011;2837;50.990;7.124;2022-09-09T07:58:58;149.37;;;8.60;;
5630;SDS011;2837;50.990;7.124;2022-09-09T08:01:28;151.43;;;9.63;;
5630;SDS011;2837;50.990;7.124;2022-09-09T08:03:59;148.20;;;8.50;;
5630;SDS011;2837;50.990;7.124;2022-09-09T08:06:28;151.40;;;9.00;;
5630;SDS011;2837;50.990;7.124;2022-09-09T08:08:55;149.20;;;8.97;;
5630;SDS011;2837;50.990;7.124;2022-09-09T08:11:22;150.77;;;9.40;;
5630;SDS011;2837;50.990;7.124;2022-09-09T08:13:50;148.30;;;8.70;;
5630;SDS011;2837;50.990;7.124;2022-09-09T08:16:17;149.80;;;8.90;;
5630;SDS011;2837;50.990;7.124;2022-09-09T08:18:46;150.67;;;9.80;;
5630;SDS011;2837;50.990;7.124;2022-09-09T08:21:15;149.77;;;8.50;;
5630;SDS011;2837;50.990;7.124;2022-09-09T08:23:43;148.10;;;8.37;;
5630;SDS011;2837;50.990;7.124;2022-09-09T08:26:18;150.07;;;8.67;;
5630;SDS011;2837;50.990;7.124;2022-09-09T08:28:47;150.27;;;9.23;;
5630;SDS011;2837;50.990;7.124;2022-09-09T08:31:16;151.10;;;9.10;;
5630;SDS011;2837;50.990;7.124;2022-09-09T08:33:43;150.13;;;8.57;;
5630;SDS011;2837;50.990;7.124;2022-09-09T08:36:11;148.97;;;8.70;;
5630;SDS011;2837;50.990;7.124;2022-09-09T08:38:42;155.43;;;9.30;;
5630;SDS011;2837;50.990;7.124;2022-09-09T08:43:58;150.37;;;8.87;;
5630;SDS011;2837;50.990;7.124;2022-09-09T08:47:07;148.83;;;8.30;;
5630;SDS011;2837;50.990;7.124;2022-09-09T08:52:41;148.67;;;8.23;;
5630;SDS011;2837;50.990;7.124;2022-09-09T08:58:24;150.90;;;8.63;;
5630;SDS011;2837;50.990;7.124;2022-09-09T09:11:42;149.90;;;8.73;;
5630;SDS011;2837;50.990;7.124;2022-09-09T09:14:20;150.20;;;7.70;;
5630;SDS011;2837;50.990;7.124;2022-09-09T09:16:58;147.67;;;8.03;;
5630;SDS011;2837;50.990;7.124;2022-09-09T09:19:29;146.77;;;7.63;;
5630;SDS011;2837;50.990;7.124;2022-09-09T09:27:24;148.30;;;8.50;;
5630;SDS011;2837;50.990;7.124;2022-09-09T09:29:51;146.67;;;7.67;;
5630;SDS011;2837;50.990;7.124;2022-09-09T09:32:19;149.07;;;8.27;;
5630;SDS011;2837;50.990;7.124;2022-09-09T09:34:54;147.30;;;8.30;;
5630;SDS011;2837;50.990;7.124;2022-09-09T09:37:26;146.53;;;8.07;;
5630;SDS011;2837;50.990;7.124;2022-09-09T09:40:07;146.97;;;7.30;;
5630;SDS011;2837;50.990;7.124;2022-09-09T09:42:34;146.90;;;8.00;;
5630;SDS011;2837;50.990;7.124;2022-09-09T09:45:18;145.77;;;7.20;;
5630;SDS011;2837;50.990;7.124;2022-09-09T09:48:03;146.90;;;7.60;;
5630;SDS011;2837;50.990;7.124;2022-09-09T09:50:34;147.10;;;8.10;;
5630;SDS011;2837;50.990;7.124;2022-09-09T09:53:02;146.60;;;8.07;;
5630;SDS011;2837;50.990;7.124;2022-09-09T09:55:30;150.00;;;8.00;;
5630;SDS011;2837;50.990;7.124;2022-09-09T09:58:03;146.80;;;6.90;;
5630;SDS011;2837;50.990;7.124;2022-09-09T10:00:30;145.93;;;7.30;;
5630;SDS011;2837;50.990;7.124;2022-09-09T10:02:56;147.77;;;8.07;;
5630;SDS011;2837;50.990;7.124;2022-09-09T10:05:22;146.77;;;7.90;;
5630;SDS011;2837;50.990;7.124;2022-09-09T10:13:29;147.47;;;7.53;;
5630;SDS011;2837;50.990;7.124;2022-09-09T10:27:23;147.80;;;7.23;;
5630;SDS011;2837;50.990;7.124;2022-09-09T10:30:04;146.77;;;7.47;;
5630;SDS011;2837;50.990;7.124;2022-09-09T10:32:45;146.40;;;7.83;;
5630;SDS011;2837;50.990;7.124;2022-09-09T10:52:25;146.87;;;7.67;;
5630;SDS011;2837;50.990;7.124;2022-09-09T10:57:40;145.87;;;7.70;;
5630;SDS011;2837;50.990;7.124;2022-09-09T11:00:24;145.53;;;7.30;;
5630;SDS011;2837;50.990;7.124;2022-09-09T11:03:21;146.87;;;8.17;;
5630;SDS011;2837;50.990;7.124;2022-09-09T11:05:55;147.87;;;7.90;;
5630;SDS011;2837;50.990;7.124;2022-09-09T11:08:29;146.40;;;7.33;;
5630;SDS011;2837;50.990;7.124;2022-09-09T11:10:59;145.43;;;7.40;;
5630;SDS011;2837;50.990;7.124;2022-09-09T11:13:38;145.60;;;7.50;;
5630;SDS011;2837;50.990;7.124;2022-09-09T11:18:55;145.87;;;7.37;;
5630;SDS011;2837;50.990;7.124;2022-09-09T11:21:47;145.37;;;7.50;;
5630;SDS011;2837;50.990;7.124;2022-09-09T11:24:22;148.07;;;7.80;;
5630;SDS011;2837;50.990;7.124;2022-09-09T11:40:27;148.57;;;8.50;;
5630;SDS011;2837;50.990;7.124;2022-09-09T11:43:03;145.67;;;7.30;;
5630;SDS011;2837;50.990;7.124;2022-09-09T11:45:30;147.50;;;8.37;;
5630;SDS011;2837;50.990;7.124;2022-09-09T11:47:59;146.00;;;8.27;;
5630;SDS011;2837;50.990;7.124;2022-09-09T11:53:02;147.17;;;8.17;;
5630;SDS011;2837;50.990;7.124;2022-09-09T11:55:45;144.77;;;7.10;;
5630;SDS011;2837;50.990;7.124;2022-09-09T12:00:38;145.13;;;7.10;;
5630;SDS011;2837;50.990;7.124;2022-09-09T12:06:10;145.70;;;8.80;;
5630;SDS011;2837;50.990;7.124;2022-09-09T12:08:41;146.97;;;7.50;;
5630;SDS011;2837;50.990;7.124;2022-09-09T12:11:10;146.60;;;7.70;;
5630;SDS011;2837;50.990;7.124;2022-09-09T12:13:36;147.53;;;8.33;;
5630;SDS011;2837;50.990;7.124;2022-09-09T12:16:02;146.47;;;7.53;;
5630;SDS011;2837;50.990;7.124;2022-09-09T12:18:37;145.43;;;8.10;;
5630;SDS011;2837;50.990;7.124;2022-09-09T12:21:19;146.17;;;7.40;;
5630;SDS011;2837;50.990;7.124;2022-09-09T12:23:55;145.50;;;7.10;;
5630;SDS011;2837;50.990;7.124;2022-09-09T12:26:48;145.07;;;7.20;;
5630;SDS011;2837;50.990;7.124;2022-09-09T12:29:24;144.80;;;7.27;;
5630;SDS011;2837;50.990;7.124;2022-09-09T12:32:06;145.30;;;8.07;;
5630;SDS011;2837;50.990;7.124;2022-09-09T12:34:40;147.63;;;7.83;;
5630;SDS011;2837;50.990;7.124;2022-09-09T12:37:10;146.50;;;8.07;;
5630;SDS011;2837;50.990;7.124;2022-09-09T12:39:51;146.90;;;7.20;;
5630;SDS011;2837;50.990;7.124;2022-09-09T12:42:20;147.87;;;8.40;;
5630;SDS011;2837;50.990;7.124;2022-09-09T12:44:54;145.00;;;7.33;;
5630;SDS011;2837;50.990;7.124;2022-09-09T12:47:25;145.37;;;7.93;;
5630;SDS011;2837;50.990;7.124;2022-09-09T12:49:58;146.37;;;8.33;;
5630;SDS011;2837;50.990;7.124;2022-09-09T12:52:26;145.30;;;8.00;;
5630;SDS011;2837;50.990;7.124;2022-09-09T12:54:55;145.17;;;7.70;;
5630;SDS011;2837;50.990;7.124;2022-09-09T12:57:22;146.17;;;7.60;;
5630;SDS011;2837;50.990;7.124;2022-09-09T12:59:52;144.90;;;7.40;;
5630;SDS011;2837;50.990;7.124;2022-09-09T13:02:35;145.47;;;7.83;;
5630;SDS011;2837;50.990;7.124;2022-09-09T13:05:13;145.40;;;7.77;;
5630;SDS011;2837;50.990;7.124;2022-09-09T13:07:41;151.07;;;8.13;;
5630;SDS011;2837;50.990;7.124;2022-09-09T13:10:10;149.13;;;7.57;;
5630;SDS011;2837;50.990;7.124;2022-09-09T13:12:36;145.27;;;7.50;;
5630;SDS011;2837;50.990;7.124;2022-09-09T13:15:02;145.77;;;7.83;;
5630;SDS011;2837;50.990;7.124;2022-09-09T13:17:28;148.80;;;9.40;;
5630;SDS011;2837;50.990;7.124;2022-09-09T13:19:54;146.87;;;8.20;;
5630;SDS011;2837;50.990;7.124;2022-09-09T13:25:27;147.40;;;8.23;;
5630;SDS011;2837;50.990;7.124;2022-09-09T13:27:58;144.63;;;7.10;;
5630;SDS011;2837;50.990;7.124;2022-09-09T13:33:02;148.50;;;8.63;;
5630;SDS011;2837;50.990;7.124;2022-09-09T13:35:34;147.07;;;8.20;;
5630;SDS011;2837;50.990;7.124;2022-09-09T13:38:12;145.67;;;7.73;;
5630;SDS011;2837;50.990;7.124;2022-09-09T13:40:39;144.77;;;7.53;;
5630;SDS011;2837;50.990;7.124;2022-09-09T13:43:05;145.47;;;7.63;;
5630;SDS011;2837;50.990;7.124;2022-09-09T13:45:51;146.57;;;6.90;;
5630;SDS011;2837;50.990;7.124;2022-09-09T13:48:18;150.03;;;7.90;;
5630;SDS011;2837;50.990;7.124;2022-09-09T13:50:53;144.87;;;8.23;;
5630;SDS011;2837;50.990;7.124;2022-09-09T13:53:30;145.07;;;7.60;;
5630;SDS011;2837;50.990;7.124;2022-09-09T13:55:56;145.00;;;7.43;;
5630;SDS011;2837;50.990;7.124;2022-09-09T13:58:23;145.37;;;7.80;;
5630;SDS011;2837;50.990;7.124;2022-09-09T14:00:50;145.03;;;7.27;;
5630;SDS011;2837;50.990;7.124;2022-09-09T14:03:17;145.07;;;7.50;;
5630;SDS011;2837;50.990;7.124;2022-09-09T14:05:43;145.50;;;7.87;;
5630;SDS011;2837;50.990;7.124;2022-09-09T14:08:10;144.97;;;7.33;;
5630;SDS011;2837;50.990;7.124;2022-09-09T14:10:41;145.70;;;8.37;;
5630;SDS011;2837;50.990;7.124;2022-09-09T14:13:06;145.30;;;8.13;;
5630;SDS011;2837;50.990;7.124;2022-09-09T14:15:33;144.37;;;7.50;;
5630;SDS011;2837;50.990;7.124;2022-09-09T14:17:58;145.57;;;7.43;;
5630;SDS011;2837;50.990;7.124;2022-09-09T14:20:24;144.87;;;7.53;;
5630;SDS011;2837;50.990;7.124;2022-09-09T14:22:49;144.30;;;7.30;;
5630;SDS011;2837;50.990;7.124;2022-09-09T14:25:15;144.37;;;7.30;;
5630;SDS011;2837;50.990;7.124;2022-09-09T14:27:41;144.80;;;7.33;;
5630;SDS011;2837;50.990;7.124;2022-09-09T14:30:07;144.03;;;6.80;;
5630;SDS011;2837;50.990;7.124;2022-09-09T14:32:33;144.77;;;7.30;;
5630;SDS011;2837;50.990;7.124;2022-09-09T14:34:59;145.50;;;7.87;;
5630;SDS011;2837;50.990;7.124;2022-09-09T14:37:26;145.20;;;8.20;;
5630;SDS011;2837;50.990;7.124;2022-09-09T14:39:52;144.57;;;6.80;;
5630;SDS011;2837;50.990;7.124;2022-09-09T14:42:19;145.07;;;7.23;;
5630;SDS011;2837;50.990;7.124;2022-09-09T14:44:46;145.43;;;7.93;;
5630;SDS011;2837;50.990;7.124;2022-09-09T14:47:12;144.37;;;6.80;;
5630;SDS011;2837;50.990;7.124;2022-09-09T14:49:38;144.97;;;7.90;;
5630;SDS011;2837;50.990;7.124;2022-09-09T14:52:04;143.97;;;7.03;;
5630;SDS011;2837;50.990;7.124;2022-09-09T14:54:30;145.30;;;7.53;;
5630;SDS011;2837;50.990;7.124;2022-09-09T14:56:58;145.17;;;7.30;;
5630;SDS011;2837;50.990;7.124;2022-09-09T14:59:24;144.43;;;7.00;;
5630;SDS011;2837;50.990;7.124;2022-09-09T15:01:50;146.17;;;7.83;;
5630;SDS011;2837;50.990;7.124;2022-09-09T15:04:15;146.10;;;7.60;;
5630;SDS011;2837;50.990;7.124;2022-09-09T15:06:41;146.33;;;8.37;;
5630;SDS011;2837;50.990;7.124;2022-09-09T15:09:09;145.80;;;7.33;;
5630;SDS011;2837;50.990;7.124;2022-09-09T15:11:35;146.93;;;7.10;;
5630;SDS011;2837;50.990;7.124;2022-09-09T15:14:03;145.80;;;7.83;;
5630;SDS011;2837;50.990;7.124;2022-09-09T15:16:29;147.90;;;8.17;;
5630;SDS011;2837;50.990;7.124;2022-09-09T15:18:58;146.27;;;7.23;;
5630;SDS011;2837;50.990;7.124;2022-09-09T15:21:25;146.47;;;7.40;;
5630;SDS011;2837;50.990;7.124;2022-09-09T15:23:52;145.73;;;7.73;;
5630;SDS011;2837;50.990;7.124;2022-09-09T15:26:19;146.10;;;7.10;;
5630;SDS011;2837;50.990;7.124;2022-09-09T15:28:46;146.67;;;7.83;;
5630;SDS011;2837;50.990;7.124;2022-09-09T15:31:16;148.50;;;7.37;;
5630;SDS011;2837;50.990;7.124;2022-09-09T15:36:22;146.57;;;7.87;;
5630;SDS011;2837;50.990;7.124;2022-09-09T15:38:50;146.53;;;7.70;;
5630;SDS011;2837;50.990;7.124;2022-09-09T15:41:17;146.27;;;7.90;;
5630;SDS011;2837;50.990;7.124;2022-09-09T15:43:54;148.97;;;7.90;;
5630;SDS011;2837;50.990;7.124;2022-09-09T15:46:24;146.97;;;8.07;;
5630;SDS011;2837;50.990;7.124;2022-09-09T15:48:58;146.50;;;7.70;;
5630;SDS011;2837;50.990;7.124;2022-09-09T15:51:29;146.50;;;7.40;;
5630;SDS011;2837;50.990;7.124;2022-09-09T15:53:56;146.57;;;8.33;;
5630;SDS011;2837;50.990;7.124;2022-09-09T15:56:23;147.87;;;8.97;;
5630;SDS011;2837;50.990;7.124;2022-09-09T15:58:53;148.90;;;8.27;;
5630;SDS011;2837;50.990;7.124;2022-09-09T16:01:20;146.07;;;7.20;;
5630;SDS011;2837;50.990;7.124;2022-09-09T16:03:46;146.77;;;7.97;;
5630;SDS011;2837;50.990;7.124;2022-09-09T16:06:15;147.27;;;8.27;;
5630;SDS011;2837;50.990;7.124;2022-09-09T16:08:44;145.50;;;7.20;;
5630;SDS011;2837;50.990;7.124;2022-09-09T16:11:12;146.80;;;7.63;;
5630;SDS011;2837;50.990;7.124;2022-09-09T16:13:43;147.13;;;7.67;;
5630;SDS011;2837;50.990;7.124;2022-09-09T16:16:09;147.97;;;7.43;;
5630;SDS011;2837;50.990;7.124;2022-09-09T16:18:38;147.30;;;7.60;;
5630;SDS011;2837;50.990;7.124;2022-09-09T16:21:05;146.43;;;7.53;;
5630;SDS011;2837;50.990;7.124;2022-09-09T16:23:33;147.10;;;7.87;;
5630;SDS011;2837;50.990;7.124;2022-09-09T16:25:59;146.67;;;7.80;;
5630;SDS011;2837;50.990;7.124;2022-09-09T16:28:25;149.47;;;8.23;;
5630;SDS011;2837;50.990;7.124;2022-09-09T16:30:51;148.07;;;8.97;;
5630;SDS011;2837;50.990;7.124;2022-09-09T16:33:16;147.93;;;8.17;;
5630;SDS011;2837;50.990;7.124;2022-09-09T16:35:42;147.77;;;8.03;;
5630;SDS011;2837;50.990;7.124;2022-09-09T16:38:09;148.27;;;7.80;;
5630;SDS011;2837;50.990;7.124;2022-09-09T16:40:35;147.83;;;7.93;;
5630;SDS011;2837;50.990;7.124;2022-09-09T16:43:02;147.80;;;7.90;;
5630;SDS011;2837;50.990;7.124;2022-09-09T16:45:31;148.67;;;8.37;;
5630;SDS011;2837;50.990;7.124;2022-09-09T16:47:57;147.93;;;7.50;;
5630;SDS011;2837;50.990;7.124;2022-09-09T16:50:26;148.50;;;8.23;;
5630;SDS011;2837;50.990;7.124;2022-09-09T16:52:52;146.87;;;7.40;;
5630;SDS011;2837;50.990;7.124;2022-09-09T16:55:18;147.57;;;7.40;;
5630;SDS011;2837;50.990;7.124;2022-09-09T16:57:45;148.87;;;8.20;;
5630;SDS011;2837;50.990;7.124;2022-09-09T17:00:13;149.13;;;8.77;;
5630;SDS011;2837;50.990;7.124;2022-09-09T17:02:41;148.37;;;7.90;;
5630;SDS011;2837;50.990;7.124;2022-09-09T17:05:07;148.27;;;7.23;;
5630;SDS011;2837;50.990;7.124;2022-09-09T17:07:32;147.87;;;8.03;;
5630;SDS011;2837;50.990;7.124;2022-09-09T17:09:58;148.30;;;7.50;;
5630;SDS011;2837;50.990;7.124;2022-09-09T17:12:24;147.77;;;7.60;;
5630;SDS011;2837;50.990;7.124;2022-09-09T17:14:50;148.90;;;8.10;;
5630;SDS011;2837;50.990;7.124;2022-09-09T17:17:15;148.47;;;8.47;;
5630;SDS011;2837;50.990;7.124;2022-09-09T17:19:42;149.17;;;8.60;;
5630;SDS011;2837;50.990;7.124;2022-09-09T17:22:07;150.10;;;8.97;;
5630;SDS011;2837;50.990;7.124;2022-09-09T17:24:33;149.53;;;8.90;;
5630;SDS011;2837;50.990;7.124;2022-09-09T17:26:59;150.60;;;9.10;;
5630;SDS011;2837;50.990;7.124;2022-09-09T17:29:26;150.43;;;9.90;;
5630;SDS011;2837;50.990;7.124;2022-09-09T17:31:51;151.17;;;9.93;;
5630;SDS011;2837;50.990;7.124;2022-09-09T17:34:17;149.60;;;8.77;;
5630;SDS011;2837;50.990;7.124;2022-09-09T17:36:43;148.90;;;8.20;;
5630;SDS011;2837;50.990;7.124;2022-09-09T17:39:08;149.80;;;9.07;;
5630;SDS011;2837;50.990;7.124;2022-09-09T17:41:38;148.17;;;8.00;;
5630;SDS011;2837;50.990;7.124;2022-09-09T17:44:05;149.27;;;8.60;;
5630;SDS011;2837;50.990;7.124;2022-09-09T17:46:33;149.87;;;9.10;;
5630;SDS011;2837;50.990;7.124;2022-09-09T17:49:04;149.80;;;8.63;;
5630;SDS011;2837;50.990;7.124;2022-09-09T17:51:32;148.77;;;8.00;;
5630;SDS011;2837;50.990;7.124;2022-09-09T17:53:59;150.90;;;9.20;;
5630;SDS011;2837;50.990;7.124;2022-09-09T17:56:28;149.40;;;8.40;;
5630;SDS011;2837;50.990;7.124;2022-09-09T17:58:56;149.27;;;8.40;;
5630;SDS011;2837;50.990;7.124;2022-09-09T18:01:24;151.07;;;8.73;;
5630;SDS011;2837;50.990;7.124;2022-09-09T18:03:52;148.43;;;7.87;;
5630;SDS011;2837;50.990;7.124;2022-09-09T18:06:22;149.67;;;8.40;;
5630;SDS011;2837;50.990;7.124;2022-09-09T18:08:54;149.60;;;8.33;;
5630;SDS011;2837;50.990;7.124;2022-09-09T18:11:22;149.17;;;8.50;;
5630;SDS011;2837;50.990;7.124;2022-09-09T18:13:54;149.37;;;8.60;;
5630;SDS011;2837;50.990;7.124;2022-09-09T18:16:21;148.97;;;8.70;;
5630;SDS011;2837;50.990;7.124;2022-09-09T18:18:49;148.77;;;8.20;;
5630;SDS011;2837;50.990;7.124;2022-09-09T18:21:15;149.17;;;9.40;;
5630;SDS011;2837;50.990;7.124;2022-09-09T18:23:43;149.80;;;9.30;;
5630;SDS011;2837;50.990;7.124;2022-09-09T18:26:14;148.40;;;8.73;;
5630;SDS011;2837;50.990;7.124;2022-09-09T18:28:42;148.40;;;8.50;;
5630;SDS011;2837;50.990;7.124;2022-09-09T18:31:12;148.70;;;8.93;;
5630;SDS011;2837;50.990;7.124;2022-09-09T18:33:40;148.97;;;8.40;;
5630;SDS011;2837;50.990;7.124;2022-09-09T18:36:08;152.40;;;10.00;;
5630;SDS011;2837;50.990;7.124;2022-09-09T18:38:36;148.67;;;8.80;;
5630;SDS011;2837;50.990;7.124;2022-09-09T18:43:52;149.17;;;9.17;;
5630;SDS011;2837;50.990;7.124;2022-09-09T18:46:21;151.43;;;7.90;;
5630;SDS011;2837;50.990;7.124;2022-09-09T18:48:48;148.97;;;8.73;;
5630;SDS011;2837;50.990;7.124;2022-09-09T18:51:15;149.00;;;8.67;;
5630;SDS011;2837;50.990;7.124;2022-09-09T18:53:58;149.50;;;8.83;;
5630;SDS011;2837;50.990;7.124;2022-09-09T18:56:26;153.50;;;9.33;;
5630;SDS011;2837;50.990;7.124;2022-09-09T18:58:53;150.10;;;9.87;;
5630;SDS011;2837;50.990;7.124;2022-09-09T19:01:22;148.97;;;9.13;;
5630;SDS011;2837;50.990;7.124;2022-09-09T19:03:48;150.00;;;9.57;;
5630;SDS011;2837;50.990;7.124;2022-09-09T19:06:16;149.90;;;9.50;;
5630;SDS011;2837;50.990;7.124;2022-09-09T19:08:44;148.47;;;9.47;;
5630;SDS011;2837;50.990;7.124;2022-09-09T19:11:12;149.20;;;9.10;;
5630;SDS011;2837;50.990;7.124;2022-09-09T19:13:53;149.77;;;9.43;;
5630;SDS011;2837;50.990;7.124;2022-09-09T19:16:26;148.47;;;9.23;;
5630;SDS011;2837;50.990;7.124;2022-09-09T19:18:54;150.00;;;9.73;;
5630;SDS011;2837;50.990;7.124;2022-09-09T19:21:25;149.70;;;8.97;;
5630;SDS011;2837;50.990;7.124;2022-09-09T19:23:57;150.27;;;9.43;;
5630;SDS011;2837;50.990;7.124;2022-09-09T19:26:25;148.60;;;8.77;;
5630;SDS011;2837;50.990;7.124;2022-09-09T19:28:56;148.73;;;9.10;;
5630;SDS011;2837;50.990;7.124;2022-09-09T19:31:22;148.70;;;8.53;;
5630;SDS011;2837;50.990;7.124;2022-09-09T19:33:49;148.77;;;8.83;;
5630;SDS011;2837;50.990;7.124;2022-09-09T19:36:16;148.57;;;8.30;;
5630;SDS011;2837;50.990;7.124;2022-09-09T19:38:43;148.47;;;8.60;;
5630;SDS011;2837;50.990;7.124;2022-09-09T19:41:17;149.57;;;8.53;;
5630;SDS011;2837;50.990;7.124;2022-09-09T19:43:44;149.23;;;9.00;;
5630;SDS011;2837;50.990;7.124;2022-09-09T19:46:11;149.93;;;8.87;;
5630;SDS011;2837;50.990;7.124;2022-09-09T19:48:39;149.83;;;9.23;;
5630;SDS011;2837;50.990;7.124;2022-09-09T19:51:07;148.20;;;8.50;;
5630;SDS011;2837;50.990;7.124;2022-09-09T19:53:44;148.27;;;8.60;;
5630;SDS011;2837;50.990;7.124;2022-09-09T19:56:14;148.97;;;9.37;;
5630;SDS011;2837;50.990;7.124;2022-09-09T19:58:40;149.43;;;8.40;;
5630;SDS011;2837;50.990;7.124;2022-09-09T20:03:35;149.80;;;8.70;;
5630;SDS011;2837;50.990;7.124;2022-09-09T20:06:02;148.87;;;8.93;;
5630;SDS011;2837;50.990;7.124;2022-09-09T20:08:30;148.60;;;8.33;;
5630;SDS011;2837;50.990;7.124;2022-09-09T20:10:56;148.17;;;8.63;;
5630;SDS011;2837;50.990;7.124;2022-09-09T20:13:21;149.30;;;9.27;;
5630;SDS011;2837;50.990;7.124;2022-09-09T20:16:00;148.57;;;8.13;;
5630;SDS011;2837;50.990;7.124;2022-09-09T20:18:31;150.57;;;8.40;;
5630;SDS011;2837;50.990;7.124;2022-09-09T20:20:59;148.70;;;8.03;;
5630;SDS011;2837;50.990;7.124;2022-09-09T20:23:26;149.20;;;9.17;;
5630;SDS011;2837;50.990;7.124;2022-09-09T20:25:52;148.07;;;7.77;;
5630;SDS011;2837;50.990;7.124;2022-09-09T20:28:18;148.57;;;8.33;;
5630;SDS011;2837;50.990;7.124;2022-09-09T20:30:47;151.47;;;8.10;;
5630;SDS011;2837;50.990;7.124;2022-09-09T20:33:15;149.30;;;8.53;;
5630;SDS011;2837;50.990;7.124;2022-09-09T20:35:42;150.77;;;9.50;;
5630;SDS011;2837;50.990;7.124;2022-09-09T20:38:08;149.50;;;8.83;;
5630;SDS011;2837;50.990;7.124;2022-09-09T20:40:34;149.87;;;9.00;;
5630;SDS011;2837;50.990;7.124;2022-09-09T20:43:01;149.77;;;8.23;;
5630;SDS011;2837;50.990;7.124;2022-09-09T20:45:28;149.17;;;8.27;;
5630;SDS011;2837;50.990;7.124;2022-09-09T20:47:54;150.63;;;8.80;;
5630;SDS011;2837;50.990;7.124;2022-09-09T20:50:21;148.37;;;7.70;;
5630;SDS011;2837;50.990;7.124;2022-09-09T20:52:47;149.20;;;9.13;;
5630;SDS011;2837;50.990;7.124;2022-09-09T20:55:12;150.03;;;9.13;;
5630;SDS011;2837;50.990;7.124;2022-09-09T20:57:38;149.60;;;8.43;;
